createdAt,value
2017-12-28T00:01:23.240Z,2.40
2017-12-28T00:03:52.819Z,2.30
2017-12-28T00:06:22.433Z,2.30
2017-12-28T00:08:53.140Z,2.05
2017-12-28T00:11:22.677Z,2.03
2017-12-28T00:13:52.521Z,3.03
2017-12-28T00:16:21.176Z,2.75
2017-12-28T00:18:51.002Z,2.97
2017-12-28T00:21:19.546Z,3.08
2017-12-28T00:26:21.717Z,2.87
2017-12-28T00:28:50.746Z,2.75
2017-12-28T00:31:19.449Z,2.40
2017-12-28T00:33:48.768Z,1.90
2017-12-28T00:36:17.581Z,2.00
2017-12-28T00:38:46.834Z,1.90
2017-12-28T00:41:15.456Z,1.73
2017-12-28T00:43:44.410Z,1.20
2017-12-28T00:46:14.903Z,1.75
2017-12-28T00:48:44.280Z,1.60
2017-12-28T00:51:13.786Z,1.27
2017-12-28T00:53:44.367Z,1.48
2017-12-28T00:56:13.138Z,1.55
2017-12-28T00:58:46.082Z,2.00
2017-12-28T01:01:16.606Z,1.37
2017-12-28T01:03:46.602Z,1.75
2017-12-28T01:06:21.198Z,1.37
2017-12-28T01:08:52.056Z,1.10
2017-12-28T01:11:22.240Z,0.95
2017-12-28T01:13:52.222Z,1.25
2017-12-28T01:16:21.162Z,1.40
2017-12-28T01:18:50.419Z,1.10
2017-12-28T01:21:19.281Z,1.10
2017-12-28T01:23:48.672Z,1.10
2017-12-28T01:26:18.063Z,0.90
2017-12-28T01:28:47.427Z,1.00
2017-12-28T01:31:18.066Z,1.15
2017-12-28T01:33:46.743Z,0.70
2017-12-28T01:36:16.676Z,0.90
2017-12-28T01:38:46.335Z,1.35
2017-12-28T01:41:15.818Z,0.90
2017-12-28T01:43:46.614Z,1.30
2017-12-28T01:46:15.393Z,0.80
2017-12-28T01:48:44.542Z,0.60
2017-12-28T01:51:16.474Z,0.70
2017-12-28T01:53:45.023Z,1.10
2017-12-28T01:56:15.658Z,0.77
2017-12-28T01:58:46.267Z,0.60
2017-12-28T02:01:14.880Z,0.73
2017-12-28T02:03:43.802Z,0.73
2017-12-28T02:06:12.219Z,0.68
2017-12-28T02:08:40.834Z,0.70
2017-12-28T02:11:10.451Z,0.80
2017-12-28T02:13:38.998Z,0.62
2017-12-28T02:16:07.559Z,1.00
2017-12-28T02:18:36.219Z,0.80
2017-12-28T02:21:04.767Z,0.90
2017-12-28T02:23:33.562Z,1.10
2017-12-28T02:26:02.048Z,1.12
2017-12-28T02:28:30.784Z,1.40
2017-12-28T02:30:59.259Z,1.35
2017-12-28T02:33:28.014Z,1.10
2017-12-28T02:35:56.563Z,1.33
2017-12-28T02:38:25.170Z,1.55
2017-12-28T02:40:53.643Z,1.30
2017-12-28T02:43:22.068Z,1.33
2017-12-28T02:45:50.964Z,1.23
2017-12-28T02:48:19.672Z,1.27
2017-12-28T02:50:48.053Z,1.27
2017-12-28T02:53:16.928Z,1.55
2017-12-28T02:55:45.708Z,1.30
2017-12-28T02:58:15.221Z,0.80
2017-12-28T03:00:43.843Z,1.10
2017-12-28T03:03:12.546Z,1.08
2017-12-28T03:05:41.127Z,0.88
2017-12-28T03:08:10.283Z,1.02
2017-12-28T03:10:38.634Z,1.10
2017-12-28T03:13:07.299Z,1.50
2017-12-28T03:15:35.989Z,1.00
2017-12-28T03:18:04.526Z,1.20
2017-12-28T03:20:33.060Z,0.88
2017-12-28T03:23:02.205Z,1.40
2017-12-28T03:25:30.888Z,3.55
2017-12-28T03:27:59.974Z,1.60
2017-12-28T03:30:28.545Z,1.40
2017-12-28T03:32:56.991Z,1.30
2017-12-28T03:35:26.038Z,1.60
2017-12-28T03:37:54.739Z,1.40
2017-12-28T03:40:23.107Z,1.70
2017-12-28T03:42:51.903Z,1.17
2017-12-28T03:45:20.722Z,1.40
2017-12-28T03:47:49.399Z,1.60
2017-12-28T03:50:17.983Z,1.50
2017-12-28T03:52:47.139Z,1.55
2017-12-28T03:55:15.770Z,1.55
2017-12-28T03:57:44.041Z,1.27
2017-12-28T04:00:13.313Z,1.60
2017-12-28T04:02:42.012Z,2.15
2017-12-28T04:05:12.121Z,1.42
2017-12-28T04:07:41.054Z,1.40
2017-12-28T04:10:10.279Z,1.20
2017-12-28T04:12:39.694Z,1.05
2017-12-28T04:15:12.281Z,1.30
2017-12-28T04:17:41.474Z,1.37
2017-12-28T04:20:14.294Z,1.50
2017-12-28T04:22:43.412Z,1.40
2017-12-28T04:25:15.963Z,1.37
2017-12-28T04:27:45.236Z,1.60
2017-12-28T04:30:16.099Z,1.45
2017-12-28T04:32:44.880Z,1.50
2017-12-28T04:35:13.686Z,1.77
2017-12-28T04:37:44.718Z,1.98
2017-12-28T04:42:46.741Z,1.50
2017-12-28T04:45:16.881Z,1.60
2017-12-28T04:47:46.541Z,2.00
2017-12-28T04:50:18.580Z,1.80
2017-12-28T04:52:47.544Z,2.00
2017-12-28T04:55:18.978Z,1.60
2017-12-28T04:57:48.202Z,1.80
2017-12-28T05:00:16.660Z,2.20
2017-12-28T05:02:45.005Z,1.95
2017-12-28T05:05:13.458Z,1.30
2017-12-28T05:07:41.762Z,1.05
2017-12-28T05:10:10.419Z,1.30
2017-12-28T05:12:38.938Z,1.40
2017-12-28T05:15:07.399Z,1.42
2017-12-28T05:17:35.822Z,1.30
2017-12-28T05:20:04.259Z,1.80
2017-12-28T05:22:32.457Z,1.30
2017-12-28T05:25:01.541Z,1.50
2017-12-28T05:27:30.525Z,1.70
2017-12-28T05:29:59.621Z,1.77
2017-12-28T05:32:28.119Z,2.10
2017-12-28T05:35:00.316Z,2.22
2017-12-28T05:37:28.764Z,2.15
2017-12-28T05:39:57.219Z,2.08
2017-12-28T05:42:25.502Z,2.87
2017-12-28T05:44:54.205Z,2.87
2017-12-28T05:47:23.000Z,4.05
2017-12-28T05:49:51.480Z,2.87
2017-12-28T05:52:20.219Z,3.70
2017-12-28T05:54:48.800Z,3.47
2017-12-28T05:57:17.238Z,3.20
2017-12-28T05:59:45.864Z,2.70
2017-12-28T06:02:14.275Z,2.45
2017-12-28T06:04:42.805Z,4.10
2017-12-28T06:07:11.124Z,4.97
2017-12-28T06:09:39.865Z,2.90
2017-12-28T06:12:08.657Z,2.70
2017-12-28T06:14:37.840Z,2.60
2017-12-28T06:17:06.759Z,3.12
2017-12-28T06:19:35.052Z,2.35
2017-12-28T06:22:03.482Z,2.40
2017-12-28T06:24:31.979Z,2.87
2017-12-28T06:27:00.381Z,2.78
2017-12-28T06:29:28.836Z,2.33
2017-12-28T06:31:57.416Z,2.72
2017-12-28T06:34:25.955Z,3.10
2017-12-28T06:36:54.604Z,2.70
2017-12-28T06:39:24.163Z,2.40
2017-12-28T06:41:52.932Z,2.78
2017-12-28T06:44:22.827Z,2.97
2017-12-28T06:46:51.631Z,3.03
2017-12-28T06:49:20.192Z,2.62
2017-12-28T06:51:48.869Z,3.10
2017-12-28T06:54:17.729Z,3.60
2017-12-28T06:56:46.700Z,2.97
2017-12-28T06:59:15.714Z,2.83
2017-12-28T07:01:44.317Z,2.45
2017-12-28T07:04:12.678Z,2.30
2017-12-28T07:06:41.078Z,2.95
2017-12-28T07:09:09.142Z,2.28
2017-12-28T07:11:37.535Z,2.50
2017-12-28T07:14:06.007Z,2.83
2017-12-28T07:16:35.536Z,3.03
2017-12-28T07:19:03.965Z,2.25
2017-12-28T07:21:32.508Z,2.90
2017-12-28T07:24:00.683Z,2.22
2017-12-28T07:26:29.174Z,2.00
2017-12-28T07:28:57.671Z,2.33
2017-12-28T07:31:27.889Z,2.22
2017-12-28T07:33:56.468Z,2.50
2017-12-28T07:36:25.070Z,2.78
2017-12-28T07:38:53.654Z,2.12
2017-12-28T07:41:22.640Z,2.40
2017-12-28T07:43:51.030Z,2.50
2017-12-28T07:46:19.425Z,3.12
2017-12-28T07:48:47.780Z,3.22
2017-12-28T07:51:18.702Z,3.05
2017-12-28T07:53:50.724Z,3.70
2017-12-28T07:56:19.689Z,3.28
2017-12-28T07:58:48.100Z,2.65
2017-12-28T08:01:18.842Z,2.90
2017-12-28T08:03:47.792Z,2.55
2017-12-28T08:06:17.674Z,3.30
2017-12-28T08:08:47.027Z,3.33
2017-12-28T08:11:16.318Z,3.50
2017-12-28T08:13:45.268Z,3.75
2017-12-28T08:16:14.058Z,3.12
2017-12-28T08:18:44.031Z,3.72
2017-12-28T08:21:16.461Z,4.03
2017-12-28T08:23:44.758Z,4.05
2017-12-28T08:26:13.384Z,3.70
2017-12-28T16:42:05.473Z,2.40
2017-12-28T16:44:33.473Z,2.22
2017-12-28T16:47:01.478Z,2.85
2017-12-28T16:49:29.583Z,3.10
2017-12-28T16:51:57.582Z,4.15
2017-12-28T16:54:25.636Z,6.03
2017-12-28T16:56:53.635Z,5.60
2017-12-28T16:59:21.632Z,4.85
2017-12-28T17:01:49.720Z,5.32
2017-12-28T17:04:17.700Z,5.55
2017-12-28T17:09:19.297Z,4.43
2017-12-28T17:11:47.244Z,5.35
2017-12-28T17:14:15.306Z,3.90
2017-12-28T17:16:43.328Z,4.15
2017-12-28T17:19:11.270Z,3.92
2017-12-28T17:21:39.216Z,3.70
2017-12-28T17:24:07.270Z,3.70
2017-12-28T17:26:35.201Z,3.95
2017-12-28T17:29:03.188Z,3.78
2017-12-28T17:31:31.170Z,4.03
2017-12-28T17:33:59.189Z,4.03
2017-12-28T17:36:27.126Z,4.57
2017-12-28T17:38:55.188Z,4.35
2017-12-28T17:41:23.114Z,3.83
2017-12-28T17:43:51.053Z,4.28
2017-12-28T17:46:18.999Z,5.95
2017-12-28T17:48:47.037Z,7.60
2017-12-28T17:51:15.038Z,11.25
2017-12-28T17:53:43.018Z,11.98
2017-12-28T17:56:11.095Z,13.75
2017-12-28T17:58:39.201Z,13.35
2017-12-28T18:01:07.095Z,19.27
2017-12-28T18:03:35.215Z,23.62
2017-12-28T18:06:03.255Z,21.25
2017-12-28T18:08:31.375Z,24.80
2017-12-28T18:10:59.336Z,22.30
2017-12-28T18:13:27.436Z,18.95
2017-12-28T18:15:55.366Z,20.23
2017-12-28T18:18:23.478Z,18.48
2017-12-28T18:20:51.556Z,20.98
2017-12-28T18:23:19.674Z,16.52
2017-12-28T18:25:47.759Z,18.30
2017-12-28T18:28:15.902Z,20.83
2017-12-28T18:30:43.880Z,21.73
2017-12-28T18:33:11.984Z,24.48
2017-12-28T18:35:39.971Z,23.90
2017-12-28T18:38:07.945Z,24.73
2017-12-28T18:40:35.931Z,20.02
2017-12-28T18:43:04.677Z,20.67
2017-12-28T18:45:32.681Z,18.73
2017-12-28T18:48:00.684Z,16.10
2017-12-28T18:50:28.744Z,14.15
2017-12-28T18:52:56.772Z,15.05
2017-12-28T18:55:24.798Z,13.57
2017-12-28T18:57:52.854Z,14.30
2017-12-28T19:00:20.941Z,13.25
2017-12-28T19:02:48.990Z,13.55
2017-12-28T19:05:16.977Z,14.90
2017-12-28T19:07:44.896Z,15.18
2017-12-28T19:10:12.936Z,14.48
2017-12-28T19:12:40.897Z,14.02
2017-12-28T19:15:08.897Z,14.57
2017-12-28T19:17:36.876Z,12.85
2017-12-28T19:20:04.837Z,13.52
2017-12-28T19:22:32.817Z,13.20
2017-12-28T19:25:00.856Z,13.00
2017-12-28T19:27:28.847Z,10.85
2017-12-28T19:29:56.846Z,10.40
2017-12-28T19:32:24.842Z,10.45
2017-12-28T19:34:52.854Z,8.95
2017-12-28T19:37:20.965Z,10.00
2017-12-28T19:39:49.024Z,10.65
2017-12-28T19:42:16.965Z,9.50
2017-12-28T19:44:45.052Z,10.80
2017-12-28T19:47:12.965Z,9.23
2017-12-28T19:49:40.985Z,9.45
2017-12-28T19:52:08.944Z,9.55
2017-12-28T19:54:36.964Z,8.95
2017-12-28T19:57:04.965Z,9.25
2017-12-28T19:59:32.964Z,9.93
2017-12-28T20:02:00.884Z,9.93
2017-12-28T20:04:28.806Z,9.15
2017-12-28T20:06:56.784Z,9.95
2017-12-28T20:09:24.804Z,9.93
2017-12-28T20:11:52.784Z,9.07
2017-12-28T20:14:20.814Z,9.40
2017-12-28T20:16:48.784Z,9.80
2017-12-28T20:19:16.763Z,10.55
2017-12-28T20:21:44.724Z,9.65
2017-12-28T20:24:12.686Z,10.15
2017-12-28T20:26:40.690Z,11.07
2017-12-28T20:29:08.630Z,9.63
2017-12-28T20:31:36.574Z,10.40
2017-12-28T20:34:04.615Z,9.35
2017-12-28T20:36:32.694Z,9.52
2017-12-28T20:39:00.695Z,10.20
2017-12-28T20:41:28.674Z,8.88
2017-12-28T20:43:56.687Z,9.63
2017-12-28T20:46:24.608Z,10.90
2017-12-28T20:48:52.596Z,9.13
2017-12-28T20:51:20.573Z,9.80
2017-12-28T20:53:48.570Z,9.75
2017-12-28T20:56:16.506Z,9.50
2017-12-28T20:58:44.531Z,9.65
2017-12-28T21:01:12.531Z,8.68
2017-12-28T21:03:40.521Z,9.50
2017-12-28T21:06:08.541Z,10.57
2017-12-28T21:08:36.584Z,9.60
2017-12-28T21:11:04.561Z,10.65
2017-12-28T21:13:32.570Z,11.57
2017-12-28T21:16:00.548Z,9.88
2017-12-28T21:18:28.476Z,8.63
2017-12-28T21:20:56.489Z,9.63
2017-12-28T21:23:24.517Z,8.00
2017-12-28T21:25:52.536Z,9.18
2017-12-28T21:28:20.557Z,8.90
2017-12-28T21:30:48.536Z,8.45
2017-12-28T21:33:16.536Z,8.15
2017-12-28T21:35:44.553Z,8.13
2017-12-28T21:38:12.553Z,6.95
2017-12-28T21:40:40.514Z,6.22
2017-12-28T21:43:08.502Z,5.93
2017-12-28T21:45:36.533Z,7.00
2017-12-28T21:48:04.494Z,6.12
2017-12-28T21:50:32.453Z,6.40
2017-12-28T21:53:00.454Z,7.20
2017-12-28T21:55:28.433Z,5.95
2017-12-28T21:57:56.395Z,5.57
2017-12-28T22:00:24.375Z,6.85
2017-12-28T22:02:52.299Z,7.65
2017-12-28T22:05:20.278Z,8.15
2017-12-28T22:07:48.241Z,9.43
2017-12-28T22:10:16.207Z,8.00
2017-12-28T22:12:44.154Z,8.98
2017-12-28T22:15:12.114Z,9.15
2017-12-28T22:17:40.099Z,9.45
2017-12-28T22:20:08.178Z,7.78
2017-12-28T22:22:36.116Z,7.10
2017-12-28T22:25:04.127Z,6.95
2017-12-28T22:27:32.031Z,7.37
2017-12-28T22:30:00.143Z,5.37
2017-12-28T22:32:28.060Z,6.10
2017-12-28T22:34:56.039Z,4.57
2017-12-28T22:37:24.118Z,4.62
2017-12-28T22:39:52.148Z,5.28
2017-12-28T22:42:20.088Z,5.70
2017-12-28T22:44:48.028Z,5.95
2017-12-28T22:47:15.986Z,6.93
2017-12-28T22:49:43.906Z,7.20
2017-12-28T22:52:11.886Z,7.97
